www.cux-wetter.de
Wetterdaten: Freitag, 23.03.2007
Datum Zeit Temp. A. Feuchte A. Luftdruck Regen Wind Richtung Richtung Sonnenschein Solar Taupunkt Windchill Windben
23.03.2007 00:00 5,7 C 85 % 1008,5 hPa 0,0 l/m 27,4 km/h (5 Bft) NO 50 0 min 0 W/m 3,4 C -4,7 C 27,4 km/h (5 Bft)
23.03.2007 00:15 5,6 C 85 % 1008,5 hPa 0,0 l/m 24,5 km/h (4 Bft) O-NO 70 0 min 0 W/m 3,3 C -4,0 C 24,5 km/h (4 Bft)
23.03.2007 00:30 5,4 C 85 % 1008,5 hPa 0,0 l/m 27,4 km/h (5 Bft) NO 50 0 min 0 W/m 3,1 C -5,1 C 27,4 km/h (5 Bft)
23.03.2007 00:45 5,4 C 85 % 1008,5 hPa 0,0 l/m 27,8 km/h (5 Bft) O-NO 65 0 min 0 W/m 3,1 C -5,2 C 27,8 km/h (5 Bft)
23.03.2007 01:00 5,2 C 85 % 1008,5 hPa 0,0 l/m 36,0 km/h (5 Bft) O-NO 60 0 min 0 W/m 2,9 C -7,5 C 36,0 km/h (5 Bft)
23.03.2007 01:15 5,1 C 85 % 1008,5 hPa 0,0 l/m 27,6 km/h (5 Bft) O-NO 65 0 min 0 W/m 2,8 C -5,6 C 27,6 km/h (5 Bft)
23.03.2007 01:30 4,9 C 86 % 1009,5 hPa 0,0 l/m 19,8 km/h (3 Bft) O-NO 70 0 min 0 W/m 2,8 C -3,2 C 19,8 km/h (3 Bft)
23.03.2007 01:45 4,9 C 84 % 1009,5 hPa 0,0 l/m 29,8 km/h (5 Bft) O 90 0 min 0 W/m 2,4 C -6,5 C 29,8 km/h (5 Bft)
23.03.2007 02:00 4,8 C 84 % 1009,5 hPa 0,0 l/m 30,1 km/h (5 Bft) O 80 0 min 0 W/m 2,3 C -6,7 C 30,1 km/h (5 Bft)
23.03.2007 02:15 4,7 C 84 % 1009,5 hPa 0,0 l/m 30,3 km/h (5 Bft) O-NO 75 0 min 0 W/m 2,2 C -6,9 C 30,3 km/h (5 Bft)
23.03.2007 02:30 4,6 C 84 % 1009,5 hPa 0,0 l/m 25,8 km/h (4 Bft) NO 55 0 min 0 W/m 2,1 C -5,7 C 25,8 km/h (4 Bft)
23.03.2007 02:45 4,5 C 83 % 1009,5 hPa 0,0 l/m 27,3 km/h (5 Bft) O 85 0 min 0 W/m 1,9 C -6,3 C 27,3 km/h (5 Bft)
23.03.2007 03:00 4,4 C 82 % 1010,5 hPa 0,0 l/m 31,0 km/h (5 Bft) O 85 0 min 0 W/m 1,6 C -7,5 C 31,0 km/h (5 Bft)
23.03.2007 03:15 4,4 C 81 % 1010,5 hPa 0,0 l/m 35,2 km/h (5 Bft) O-NO 65 0 min 0 W/m 1,4 C -8,5 C 35,2 km/h (5 Bft)
23.03.2007 03:30 4,1 C 82 % 1010,5 hPa 0,0 l/m 26,8 km/h (4 Bft) O 95 0 min 0 W/m 1,3 C -6,7 C 26,8 km/h (4 Bft)
23.03.2007 03:45 4,3 C 82 % 1010,5 hPa 0,0 l/m 32,7 km/h (5 Bft) O 80 0 min 0 W/m 1,5 C -8,0 C 32,7 km/h (5 Bft)
23.03.2007 04:00 4,3 C 82 % 1011,5 hPa 0,0 l/m 21,5 km/h (4 Bft) O-NO 75 0 min 0 W/m 1,5 C -4,7 C 21,5 km/h (4 Bft)
23.03.2007 04:15 4,4 C 82 % 1011,5 hPa 0,0 l/m 22,8 km/h (4 Bft) O-NO 75 0 min 0 W/m 1,6 C -5,0 C 22,8 km/h (4 Bft)
23.03.2007 04:30 4,4 C 83 % 1011,5 hPa 0,0 l/m 23,3 km/h (4 Bft) O-NO 60 0 min 0 W/m 1,8 C -5,2 C 23,3 km/h (4 Bft)
23.03.2007 04:45 4,1 C 84 % 1011,5 hPa 0,0 l/m 17,9 km/h (3 Bft) NO 55 0 min 0 W/m 1,6 C -3,4 C 17,9 km/h (3 Bft)
23.03.2007 05:00 4,2 C 85 % 1011,5 hPa 0,0 l/m 20,5 km/h (4 Bft) O-NO 60 0 min 0 W/m 1,9 C -4,4 C 20,5 km/h (4 Bft)
23.03.2007 05:15 4,3 C 86 % 1011,5 hPa 0,0 l/m 21,1 km/h (4 Bft) O-NO 70 0 min 0 W/m 2,2 C -4,5 C 21,1 km/h (4 Bft)
23.03.2007 05:30 4,2 C 87 % 1011,5 hPa 0,0 l/m 20,3 km/h (4 Bft) O-NO 65 0 min 0 W/m 2,2 C -4,3 C 20,3 km/h (4 Bft)
23.03.2007 05:45 4,3 C 88 % 1011,5 hPa 0,0 l/m 26,8 km/h (4 Bft) NO 50 0 min 0 W/m 2,5 C -6,5 C 26,8 km/h (4 Bft)
23.03.2007 06:00 4,6 C 88 % 1012,5 hPa 0,0 l/m 23,2 km/h (4 Bft) O-NO 65 0 min 0 W/m 2,8 C -4,9 C 23,2 km/h (4 Bft)
23.03.2007 06:15 4,7 C 88 % 1012,5 hPa 0,0 l/m 23,6 km/h (4 Bft) O-NO 60 0 min 0 W/m 2,9 C -4,9 C 23,6 km/h (4 Bft)
23.03.2007 06:30 4,9 C 88 % 1012,5 hPa 0,0 l/m 17,6 km/h (3 Bft) NO 45 0 min 0 W/m 3,1 C -2,3 C 17,6 km/h (3 Bft)
23.03.2007 06:45 5,2 C 88 % 1013,5 hPa 0,0 l/m 23,0 km/h (4 Bft) NO 50 0 min 0 W/m 3,4 C -4,0 C 23,0 km/h (4 Bft)
23.03.2007 07:00 5,3 C 87 % 1013,5 hPa 0,0 l/m 22,5 km/h (4 Bft) NO 55 0 min 0 W/m 3,3 C -3,7 C 22,5 km/h (4 Bft)
23.03.2007 07:15 5,2 C 88 % 1013,5 hPa 0,0 l/m 22,0 km/h (4 Bft) NO 50 0 min 0 W/m 3,4 C -3,7 C 22,0 km/h (4 Bft)
23.03.2007 07:30 5,6 C 87 % 1013,5 hPa 0,0 l/m 25,8 km/h (4 Bft) O-NO 70 0 min 0 W/m 3,6 C -4,4 C 25,8 km/h (4 Bft)
23.03.2007 07:45 5,8 C 87 % 1013,5 hPa 0,0 l/m 20,6 km/h (4 Bft) NO 55 0 min 0 W/m 3,8 C -2,4 C 20,6 km/h (4 Bft)
23.03.2007 08:00 5,8 C 86 % 1013,5 hPa 0,0 l/m 22,5 km/h (4 Bft) O-NO 75 0 min 0 W/m 3,6 C -3,0 C 22,5 km/h (4 Bft)
23.03.2007 08:15 6,0 C 85 % 1013,5 hPa 0,0 l/m 25,0 km/h (4 Bft) O-NO 60 0 min 0 W/m 3,7 C -3,6 C 25,0 km/h (4 Bft)
23.03.2007 08:30 6,3 C 84 % 1014,5 hPa 0,0 l/m 23,7 km/h (4 Bft) O-NO 60 0 min 0 W/m 3,8 C -2,8 C 23,7 km/h (4 Bft)
23.03.2007 08:45 6,6 C 83 % 1014,5 hPa 0,0 l/m 23,3 km/h (4 Bft) O-NO 75 0 min 0 W/m 3,9 C -2,2 C 23,3 km/h (4 Bft)
23.03.2007 09:00 7,2 C 80 % 1014,5 hPa 0,0 l/m 26,1 km/h (4 Bft) O-NO 70 0 min 0 W/m 4,0 C -2,3 C 26,1 km/h (4 Bft)
23.03.2007 09:15 8,0 C 77 % 1014,5 hPa 0,0 l/m 26,4 km/h (4 Bft) O-NO 75 0 min 0 W/m 4,2 C -1,3 C 26,4 km/h (4 Bft)
23.03.2007 09:30 7,7 C 76 % 1014,5 hPa 0,0 l/m 28,5 km/h (5 Bft) O-NO 75 0 min 0 W/m 3,7 C -2,2 C 28,5 km/h (5 Bft)
23.03.2007 09:44 8,4 C 77 % 1014,5 hPa 0,0 l/m 24,0 km/h (4 Bft) O-NO 75 0 min 0 W/m 4,6 C -0,1 C 24,0 km/h (4 Bft)
23.03.2007 10:00 8,9 C 73 % 1014,5 hPa 0,0 l/m 25,5 km/h (4 Bft) O-NO 70 0 min 0 W/m 4,3 C 0,2 C 25,5 km/h (4 Bft)
23.03.2007 10:15 9,4 C 69 % 1014,5 hPa 0,0 l/m 22,8 km/h (4 Bft) O-NO 70 0 min 0 W/m 4,0 C 1,6 C 22,8 km/h (4 Bft)
23.03.2007 10:30 10,0 C 67 % 1015,5 hPa 0,0 l/m 24,3 km/h (4 Bft) NO 50 0 min 0 W/m 4,2 C 2,0 C 24,3 km/h (4 Bft)
23.03.2007 10:45 10,3 C 64 % 1015,5 hPa 0,0 l/m 31,3 km/h (5 Bft) O 80 0 min 0 W/m 3,8 C 0,8 C 31,3 km/h (5 Bft)
23.03.2007 11:00 10,4 C 62 % 1015,5 hPa 0,0 l/m 31,3 km/h (5 Bft) O 80 0 min 0 W/m 3,4 C 1,0 C 31,3 km/h (5 Bft)
23.03.2007 11:15 10,6 C 62 % 1015,5 hPa 0,0 l/m 31,7 km/h (5 Bft) O 95 0 min 0 W/m 3,6 C 1,2 C 31,7 km/h (5 Bft)
23.03.2007 11:30 10,9 C 58 % 1016,5 hPa 0,0 l/m 29,9 km/h (5 Bft) O 80 0 min 0 W/m 3,0 C 1,9 C 29,9 km/h (5 Bft)
23.03.2007 11:45 11,3 C 54 % 1016,5 hPa 0,0 l/m 28,0 km/h (5 Bft) O 90 0 min 0 W/m 2,3 C 2,9 C 28,0 km/h (5 Bft)
23.03.2007 12:00 11,6 C 52 % 1016,5 hPa 0,0 l/m 28,9 km/h (5 Bft) O-SO 110 0 min 0 W/m 2,1 C 3,1 C 28,9 km/h (5 Bft)
23.03.2007 12:15 11,7 C 49 % 1016,5 hPa 0,0 l/m 32,1 km/h (5 Bft) O 85 0 min 0 W/m 1,3 C 2,7 C 32,1 km/h (5 Bft)
23.03.2007 12:30 11,6 C 51 % 1016,5 hPa 0,0 l/m 29,1 km/h (5 Bft) O 80 0 min 0 W/m 1,8 C 3,1 C 29,1 km/h (5 Bft)
23.03.2007 12:45 11,8 C 51 % 1016,5 hPa 0,0 l/m 31,7 km/h (5 Bft) O-SO 110 0 min 0 W/m 2,0 C 2,9 C 31,7 km/h (5 Bft)
23.03.2007 13:00 12,4 C 48 % 1016,5 hPa 0,0 l/m 29,1 km/h (5 Bft) O 90 0 min 0 W/m 1,7 C 4,2 C 29,1 km/h (5 Bft)
23.03.2007 13:15 12,3 C 46 % 1016,5 hPa 0,0 l/m 30,4 km/h (5 Bft) O 95 0 min 0 W/m 1,0 C 3,8 C 30,4 km/h (5 Bft)
23.03.2007 13:30 12,3 C 48 % 1016,5 hPa 0,0 l/m 31,2 km/h (5 Bft) O 90 0 min 0 W/m 1,6 C 3,7 C 31,2 km/h (5 Bft)
23.03.2007 13:45 12,3 C 45 % 1015,5 hPa 0,0 l/m 29,8 km/h (5 Bft) O-NO 70 0 min 0 W/m 0,7 C 3,9 C 29,8 km/h (5 Bft)
23.03.2007 14:00 12,6 C 48 % 1015,5 hPa 0,0 l/m 27,7 km/h (5 Bft) O 80 0 min 0 W/m 1,9 C 4,8 C 27,7 km/h (5 Bft)
23.03.2007 14:15 12,6 C 47 % 1015,5 hPa 0,0 l/m 24,7 km/h (4 Bft) O-NO 75 0 min 0 W/m 1,6 C 5,4 C 24,7 km/h (4 Bft)
23.03.2007 14:30 12,5 C 49 % 1015,5 hPa 0,0 l/m 27,5 km/h (5 Bft) O 85 0 min 0 W/m 2,1 C 4,7 C 27,5 km/h (5 Bft)
23.03.2007 14:45 12,6 C 51 % 1015,5 hPa 0,0 l/m 29,6 km/h (5 Bft) O 90 0 min 0 W/m 2,7 C 4,4 C 29,6 km/h (5 Bft)
23.03.2007 15:00 12,6 C 60 % 1015,5 hPa 0,0 l/m 25,7 km/h (4 Bft) O-NO 75 0 min 0 W/m 5,0 C 5,2 C 25,7 km/h (4 Bft)
23.03.2007 15:15 12,1 C 65 % 1016,5 hPa 0,0 l/m 24,0 km/h (4 Bft) O-NO 60 0 min 0 W/m 5,7 C 4,9 C 24,0 km/h (4 Bft)
23.03.2007 15:30 11,3 C 66 % 1016,5 hPa 0,0 l/m 20,0 km/h (4 Bft) O-NO 60 0 min 0 W/m 5,2 C 5,0 C 20,0 km/h (4 Bft)
23.03.2007 15:45 10,9 C 67 % 1016,5 hPa 0,0 l/m 24,5 km/h (4 Bft) NO 55 0 min 0 W/m 5,0 C 3,2 C 24,5 km/h (4 Bft)
23.03.2007 16:00 11,0 C 69 % 1016,5 hPa 0,0 l/m 29,5 km/h (5 Bft) NO 50 0 min 0 W/m 5,5 C 2,2 C 29,5 km/h (5 Bft)
23.03.2007 16:15 10,5 C 70 % 1016,5 hPa 0,0 l/m 24,8 km/h (4 Bft) NO 50 0 min 0 W/m 5,3 C 2,6 C 24,8 km/h (4 Bft)
23.03.2007 16:30 10,2 C 73 % 1016,5 hPa 0,0 l/m 26,2 km/h (4 Bft) O-NO 60 0 min 0 W/m 5,6 C 1,8 C 26,2 km/h (4 Bft)
23.03.2007 16:45 9,8 C 70 % 1016,5 hPa 0,0 l/m 28,3 km/h (5 Bft) NO 55 0 min 0 W/m 4,6 C 0,8 C 28,3 km/h (5 Bft)
23.03.2007 17:00 9,9 C 66 % 1016,5 hPa 0,0 l/m 29,8 km/h (5 Bft) O-NO 70 0 min 0 W/m 3,9 C 0,6 C 29,8 km/h (5 Bft)
23.03.2007 17:15 9,7 C 58 % 1016,5 hPa 0,0 l/m 33,7 km/h (5 Bft) O-NO 70 0 min 0 W/m 1,8 C -0,5 C 33,7 km/h (5 Bft)
23.03.2007 17:30 9,6 C 60 % 1017,5 hPa 0,0 l/m 35,7 km/h (5 Bft) O-NO 75 0 min 0 W/m 2,2 C -1,0 C 35,7 km/h (5 Bft)
23.03.2007 17:45 9,2 C 57 % 1017,5 hPa 0,0 l/m 31,9 km/h (5 Bft) O-NO 65 0 min 0 W/m 1,1 C -0,9 C 31,9 km/h (5 Bft)
23.03.2007 18:00 8,7 C 60 % 1017,5 hPa 0,0 l/m 34,9 km/h (5 Bft) O-NO 75 0 min 0 W/m 1,4 C -2,2 C 34,9 km/h (5 Bft)
23.03.2007 18:15 8,2 C 63 % 1017,5 hPa 0,0 l/m 34,1 km/h (5 Bft) O-NO 65 0 min 0 W/m 1,6 C -2,7 C 34,1 km/h (5 Bft)
23.03.2007 18:30 7,9 C 65 % 1017,5 hPa 0,0 l/m 36,5 km/h (5 Bft) O-NO 60 0 min 0 W/m 1,7 C -3,6 C 36,5 km/h (5 Bft)
23.03.2007 18:45 7,6 C 66 % 1017,5 hPa 0,0 l/m 30,5 km/h (5 Bft) O 80 0 min 0 W/m 1,7 C -2,8 C 30,5 km/h (5 Bft)
23.03.2007 19:00 7,5 C 67 % 1017,5 hPa 0,0 l/m 33,9 km/h (5 Bft) O 85 0 min 0 W/m 1,8 C -3,7 C 33,9 km/h (5 Bft)
23.03.2007 19:15 7,2 C 69 % 1017,5 hPa 0,0 l/m 23,3 km/h (4 Bft) NO 55 0 min 0 W/m 1,9 C -1,4 C 23,3 km/h (4 Bft)
23.03.2007 19:30 7,2 C 70 % 1017,5 hPa 0,0 l/m 22,0 km/h (4 Bft) O-NO 65 0 min 0 W/m 2,1 C -1,0 C 22,0 km/h (4 Bft)
23.03.2007 19:44 7,3 C 71 % 1017,5 hPa 0,0 l/m 24,8 km/h (4 Bft) O-NO 60 0 min 0 W/m 2,4 C -1,8 C 24,8 km/h (4 Bft)
23.03.2007 20:00 7,4 C 72 % 1017,5 hPa 0,0 l/m 13,1 km/h (3 Bft) NO 55 0 min 0 W/m 2,7 C 2,9 C 13,1 km/h (3 Bft)
23.03.2007 20:15 7,4 C 73 % 1017,5 hPa 0,0 l/m 14,6 km/h (3 Bft) O-NO 60 0 min 0 W/m 2,9 C 2,2 C 14,6 km/h (3 Bft)
23.03.2007 20:30 7,5 C 73 % 1017,5 hPa 0,0 l/m 12,8 km/h (3 Bft) NO 50 0 min 0 W/m 3,0 C 3,2 C 12,8 km/h (3 Bft)
23.03.2007 20:45 7,5 C 74 % 1017,5 hPa 0,0 l/m 15,0 km/h (3 Bft) NO 45 0 min 0 W/m 3,2 C 2,1 C 15,0 km/h (3 Bft)
23.03.2007 21:00 7,4 C 76 % 1017,5 hPa 0,0 l/m 14,3 km/h (3 Bft) NO 45 0 min 0 W/m 3,5 C 2,3 C 14,3 km/h (3 Bft)
23.03.2007 21:15 7,3 C 77 % 1017,5 hPa 0,0 l/m 15,6 km/h (3 Bft) NO 45 0 min 0 W/m 3,5 C 1,6 C 15,6 km/h (3 Bft)
23.03.2007 21:30 7,2 C 78 % 1017,5 hPa 0,0 l/m 15,7 km/h (3 Bft) NO 35 0 min 0 W/m 3,6 C 1,4 C 15,7 km/h (3 Bft)
23.03.2007 21:45 7,2 C 79 % 1016,5 hPa 0,0 l/m 14,6 km/h (3 Bft) NO 40 0 min 0 W/m 3,8 C 1,9 C 14,6 km/h (3 Bft)
23.03.2007 22:00 7,2 C 80 % 1016,5 hPa 0,0 l/m 15,3 km/h (3 Bft) NO 45 0 min 0 W/m 4,0 C 1,6 C 15,3 km/h (3 Bft)
23.03.2007 22:15 7,1 C 82 % 1016,5 hPa 0,0 l/m 21,3 km/h (4 Bft) NO 40 0 min 0 W/m 4,2 C -0,9 C 21,3 km/h (4 Bft)
23.03.2007 22:30 6,8 C 84 % 1016,5 hPa 0,3 l/m 24,8 km/h (4 Bft) NO 50 0 min 0 W/m 4,3 C -2,4 C 24,8 km/h (4 Bft)
23.03.2007 22:45 6,6 C 86 % 1016,5 hPa 0,0 l/m 17,8 km/h (3 Bft) NO 45 0 min 0 W/m 4,4 C -0,2 C 17,8 km/h (3 Bft)
23.03.2007 23:00 6,5 C 87 % 1015,5 hPa 0,3 l/m 18,0 km/h (3 Bft) NO 45 0 min 0 W/m 4,5 C -0,4 C 18,0 km/h (3 Bft)
23.03.2007 23:15 6,4 C 88 % 1015,5 hPa 0,0 l/m 24,8 km/h (4 Bft) NO 40 0 min 0 W/m 4,6 C -3,0 C 24,8 km/h (4 Bft)
23.03.2007 23:30 6,4 C 89 % 1015,5 hPa 0,3 l/m 23,3 km/h (4 Bft) NO 35 0 min 0 W/m 4,7 C -2,5 C 23,3 km/h (4 Bft)
23.03.2007 23:45 6,4 C 90 % 1015,5 hPa 0,0 l/m 25,0 km/h (4 Bft) NO 45 0 min 0 W/m 4,9 C -3,0 C 25,0 km/h (4 Bft)
_ Min-Zeit 03:30 13:45 00:00 - 20:30 - - - - 13:45 03:15 20:30
Minimum _ 4,1 C 45 % 1008,5 hPa - 12,8 km/h (3 Bft) - - - - 0,7 C -8,5 C 12,8 km/h (3 Bft)
_ Max-Zeit 14:00 23:45 17:30 22:30 18:30 - - 00:00 00:00 15:15 14:15 18:30
Maximum _ 12,6 C 90 % 1017,5 hPa 0,3 l/m 36,5 km/h
O-NO (5 Bft)
- - 0 min 0 W/m 5,7 C 5,4 C 36,5 km/h
O-NO (5 Bft)
Durchschnitt _ 7,7 C 73 % 1014,5 hPa #0,9 l/m 25,5 km/h (4 Bft) O-NO - #0 min. 0 W/m 3,0 C -1,2 C 25,5 km/h (4 Bft)
copyright by Holger Just